createdAt,value
2018-03-17T00:02:32.703Z,-3.20
2018-03-17T00:05:06.492Z,-3.30
2018-03-17T00:07:40.211Z,-3.20
2018-03-17T00:10:14.070Z,-3.30
2018-03-17T00:12:47.925Z,-3.30
2018-03-17T00:15:22.520Z,-3.40
2018-03-17T00:17:56.256Z,-3.40
2018-03-17T00:20:30.145Z,-3.40
2018-03-17T00:23:03.946Z,-3.50
2018-03-17T00:25:37.744Z,-3.50
2018-03-17T00:28:11.517Z,-3.50
2018-03-17T00:30:45.379Z,-3.50
2018-03-17T00:33:19.857Z,-3.60
2018-03-17T00:35:53.638Z,-3.60
2018-03-17T00:38:27.467Z,-3.60
2018-03-17T00:41:01.220Z,-3.50
2018-03-17T00:43:34.942Z,-3.60
2018-03-17T00:46:11.292Z,-3.60
2018-03-17T00:48:45.018Z,-3.70
2018-03-17T00:51:18.850Z,-3.70
2018-03-17T00:53:52.634Z,-3.70
2018-03-17T00:56:26.417Z,-3.70
2018-03-17T00:59:00.145Z,-3.70
2018-03-17T01:01:33.896Z,-3.70
2018-03-17T01:04:07.732Z,-3.70
2018-03-17T01:06:41.435Z,-3.70
2018-03-17T01:09:15.924Z,-3.70
2018-03-17T01:11:49.690Z,-3.70
2018-03-17T01:14:23.364Z,-3.70
2018-03-17T01:16:58.188Z,-3.80
2018-03-17T01:19:31.992Z,-3.80
2018-03-17T01:22:05.745Z,-3.70
2018-03-17T01:24:39.593Z,-3.70
2018-03-17T01:27:13.227Z,-3.70
2018-03-17T01:29:46.914Z,-3.80
2018-03-17T01:32:20.741Z,-3.80
2018-03-17T01:34:54.512Z,-3.80
2018-03-17T01:37:28.324Z,-3.80
2018-03-17T01:40:02.078Z,-3.80
2018-03-17T01:42:36.608Z,-3.80
2018-03-17T01:45:10.400Z,-3.80
2018-03-17T01:47:44.160Z,-3.80
2018-03-17T01:50:17.929Z,-3.80
2018-03-17T01:52:51.715Z,-3.80
2018-03-17T01:55:25.528Z,-3.80
2018-03-17T01:57:59.294Z,-3.80
2018-03-17T02:00:33.312Z,-3.80
2018-03-17T02:03:07.043Z,-3.70
2018-03-17T02:05:41.608Z,-3.80
2018-03-17T02:08:15.286Z,-3.80
2018-03-17T02:10:49.060Z,-3.70
2018-03-17T02:13:22.786Z,-3.70
2018-03-17T02:15:56.529Z,-3.80
2018-03-17T02:18:30.261Z,-3.80
2018-03-17T02:21:04.200Z,-3.80
2018-03-17T02:23:38.725Z,-3.80
2018-03-17T02:26:13.543Z,-3.80
2018-03-17T02:28:47.161Z,-3.80
2018-03-17T02:31:21.621Z,-3.80
2018-03-17T02:33:55.209Z,-3.90
2018-03-17T02:36:29.005Z,-3.90
2018-03-17T02:39:02.728Z,-3.80
2018-03-17T02:41:36.454Z,-3.90
2018-03-17T02:44:10.830Z,-3.90
2018-03-17T02:46:44.570Z,-3.90
2018-03-17T02:49:18.318Z,-3.90
2018-03-17T02:51:52.903Z,-4.00
2018-03-17T02:54:26.566Z,-4.00
2018-03-17T02:57:00.355Z,-4.00
2018-03-17T02:59:34.068Z,-4.00
2018-03-17T03:02:07.808Z,-4.00
2018-03-17T03:04:42.324Z,-4.00
2018-03-17T03:07:16.591Z,-4.00
2018-03-17T03:09:50.518Z,-4.10
2018-03-17T03:12:24.267Z,-4.00
2018-03-17T03:14:58.066Z,-4.10
2018-03-17T03:17:32.592Z,-4.10
2018-03-17T03:20:06.362Z,-4.10
2018-03-17T03:22:40.210Z,-4.10
2018-03-17T03:25:14.669Z,-4.10
2018-03-17T03:27:48.385Z,-4.10
2018-03-17T03:30:22.910Z,-4.10
2018-03-17T03:32:56.761Z,-4.10
2018-03-17T03:35:30.423Z,-4.10
2018-03-17T03:38:04.230Z,-4.10
2018-03-17T03:40:38.032Z,-4.00
2018-03-17T03:43:11.735Z,-4.10
2018-03-17T03:45:45.465Z,-4.20
2018-03-17T03:48:19.228Z,-4.20
2018-03-17T03:50:53.719Z,-4.20
2018-03-17T03:53:27.301Z,-4.20
2018-03-17T03:56:01.099Z,-4.20
2018-03-17T03:58:37.632Z,-4.20
2018-03-17T04:01:12.191Z,-4.30
2018-03-17T04:03:45.878Z,-4.30
2018-03-17T04:06:19.496Z,-4.30
2018-03-17T04:08:53.998Z,-4.40
2018-03-17T04:11:27.637Z,-4.40
2018-03-17T04:14:02.208Z,-4.40
2018-03-17T04:16:35.931Z,-4.40
2018-03-17T04:19:09.689Z,-4.40
2018-03-17T04:21:43.442Z,-4.40
2018-03-17T04:24:17.201Z,-4.40
2018-03-17T04:26:51.777Z,-4.50
2018-03-17T04:29:25.609Z,-4.50
2018-03-17T04:32:00.070Z,-4.50
2018-03-17T04:34:33.815Z,-4.50
2018-03-17T04:37:07.579Z,-4.50
2018-03-17T04:39:42.112Z,-4.50
2018-03-17T04:42:15.806Z,-4.50
2018-03-17T04:44:49.520Z,-4.50
2018-03-17T04:47:24.080Z,-4.50
2018-03-17T04:49:57.789Z,-4.50
2018-03-17T04:52:32.164Z,-4.60
2018-03-17T04:55:05.951Z,-4.60
2018-03-17T04:57:39.680Z,-4.60
2018-03-17T05:00:13.416Z,-4.50
2018-03-17T05:02:46.993Z,-4.50
2018-03-17T05:05:20.769Z,-4.50
2018-03-17T05:07:55.323Z,-4.50
2018-03-17T05:10:29.749Z,-4.50
2018-03-17T05:13:03.556Z,-4.50
2018-03-17T05:15:37.361Z,-4.50
2018-03-17T05:18:11.131Z,-4.50
2018-03-17T05:20:44.769Z,-4.50
2018-03-17T05:23:18.460Z,-4.50
2018-03-17T05:25:52.204Z,-4.50
2018-03-17T05:28:26.050Z,-4.50
2018-03-17T05:30:59.784Z,-4.50
2018-03-17T05:33:33.447Z,-4.50
2018-03-17T05:36:07.261Z,-4.50
2018-03-17T05:38:41.028Z,-4.50
2018-03-17T05:41:14.957Z,-4.40
2018-03-17T05:43:48.616Z,-4.40
2018-03-17T05:46:22.389Z,-4.40
2018-03-17T05:48:56.225Z,-4.40
2018-03-17T05:51:29.993Z,-4.40
2018-03-17T05:54:04.560Z,-4.30
2018-03-17T05:56:39.037Z,-4.40
2018-03-17T05:59:12.788Z,-4.30
2018-03-17T06:01:46.549Z,-4.30
2018-03-17T06:04:21.599Z,-4.30
2018-03-17T06:06:55.249Z,-4.30
2018-03-17T06:09:28.993Z,-4.20
2018-03-17T06:12:02.785Z,-4.20
2018-03-17T06:14:44.198Z,-4.20
2018-03-17T06:17:18.706Z,-4.20
2018-03-17T06:19:53.094Z,-4.10
2018-03-17T06:22:28.086Z,-4.20
2018-03-17T06:25:01.669Z,-4.20
2018-03-17T06:27:36.226Z,-4.20
2018-03-17T06:30:10.032Z,-4.20
2018-03-17T06:32:43.774Z,-4.10
2018-03-17T06:35:17.542Z,-4.10
2018-03-17T06:37:51.262Z,-4.10
2018-03-17T06:40:25.010Z,-4.00
2018-03-17T06:43:00.566Z,-4.00
2018-03-17T06:45:34.416Z,-4.10
2018-03-17T06:48:08.238Z,-4.10
2018-03-17T06:50:41.942Z,-4.00
2018-03-17T06:53:15.714Z,-4.00
2018-03-17T06:55:49.406Z,-4.00
2018-03-17T06:58:23.126Z,-4.00
2018-03-17T07:00:57.202Z,-4.10
2018-03-17T07:03:30.893Z,-4.20
2018-03-17T07:06:05.725Z,-4.10
2018-03-17T07:08:39.391Z,-4.10
2018-03-17T07:11:13.880Z,-4.00
2018-03-17T07:13:47.725Z,-4.10
2018-03-17T07:16:21.429Z,-4.00
2018-03-17T07:18:55.800Z,-4.00
2018-03-17T07:21:29.853Z,-4.00
2018-03-17T07:24:03.770Z,-4.00
2018-03-17T07:26:45.045Z,-3.80
2018-03-17T07:29:19.568Z,-3.80
2018-03-17T07:31:53.264Z,-3.80
2018-03-17T07:34:27.807Z,-3.70
2018-03-17T07:37:01.425Z,-3.70
2018-03-17T07:39:52.915Z,-3.70
2018-03-17T07:42:26.720Z,-3.70
2018-03-17T07:45:00.431Z,-3.70
2018-03-17T07:47:34.231Z,-3.70
2018-03-17T07:50:07.976Z,-3.70
2018-03-17T07:52:41.745Z,-3.80
2018-03-17T07:55:15.552Z,-3.80
2018-03-17T07:57:49.340Z,-3.60
2018-03-17T08:00:23.188Z,-3.50
2018-03-17T08:02:56.864Z,-3.50
2018-03-17T08:05:30.683Z,-3.40
2018-03-17T08:08:04.485Z,-3.30
2018-03-17T08:10:39.096Z,-3.30
2018-03-17T08:13:12.832Z,-3.30
2018-03-17T08:15:46.581Z,-3.10
2018-03-17T08:18:21.042Z,-2.80
2018-03-17T08:20:54.688Z,-2.80
2018-03-17T08:23:28.405Z,-2.70
2018-03-17T08:26:03.036Z,-2.80
2018-03-17T08:28:36.831Z,-2.80
2018-03-17T08:31:10.536Z,-2.70
2018-03-17T08:33:45.055Z,-2.70
2018-03-17T08:36:18.928Z,-2.80
2018-03-17T08:38:52.714Z,-2.90
2018-03-17T08:41:26.485Z,-2.90
2018-03-17T08:44:01.054Z,-2.50
2018-03-17T08:46:35.376Z,-2.40
2018-03-17T08:49:09.083Z,-2.50
2018-03-17T08:51:42.811Z,-2.50
2018-03-17T08:54:16.617Z,-2.40
2018-03-17T08:56:50.374Z,-2.40
2018-03-17T08:59:24.126Z,-2.70
2018-03-17T09:01:57.948Z,-2.70
2018-03-17T09:04:33.602Z,-2.80
2018-03-17T09:07:07.250Z,-2.60
2018-03-17T09:09:41.171Z,-2.70
2018-03-17T09:12:15.155Z,-2.70
2018-03-17T09:14:48.931Z,-2.80
2018-03-17T09:17:22.674Z,-2.60
2018-03-17T09:19:56.630Z,-2.40
2018-03-17T09:22:30.414Z,-2.10
2018-03-17T09:25:09.033Z,-2.10
2018-03-17T09:27:42.908Z,-2.00
2018-03-17T09:30:16.791Z,-2.00
2018-03-17T09:32:51.452Z,-2.30
2018-03-17T09:35:25.150Z,-2.40
2018-03-17T09:37:59.664Z,-2.30
2018-03-17T09:40:34.310Z,-2.30
2018-03-17T09:43:07.930Z,-2.30
2018-03-17T09:45:41.717Z,-2.30
2018-03-17T09:48:15.565Z,-2.10
2018-03-17T09:50:49.614Z,-2.10
2018-03-17T09:53:23.403Z,-2.40
2018-03-17T09:55:57.242Z,-2.30
2018-03-17T09:58:31.481Z,-2.20
2018-03-17T10:01:07.006Z,-1.70
2018-03-17T10:03:40.732Z,-1.70
2018-03-17T10:06:15.297Z,-1.50
2018-03-17T10:08:49.064Z,-1.60
2018-03-17T10:11:22.837Z,-1.50
2018-03-17T10:13:56.681Z,-1.60
2018-03-17T10:16:30.462Z,-1.60
2018-03-17T10:19:04.231Z,-1.40
2018-03-17T10:21:38.887Z,-1.20
2018-03-17T10:24:13.412Z,-1.40
2018-03-17T10:26:47.929Z,-1.40
2018-03-17T10:29:23.688Z,-1.40
2018-03-17T10:31:59.002Z,-1.40
2018-03-17T10:34:33.695Z,-1.30
2018-03-17T10:37:07.434Z,-1.50
2018-03-17T10:39:43.280Z,-1.40
2018-03-17T10:42:18.011Z,-1.40
2018-03-17T10:44:51.996Z,-1.50
2018-03-17T10:47:27.009Z,-1.10
2018-03-17T10:50:02.238Z,-0.80
2018-03-17T10:52:36.033Z,-0.90
2018-03-17T10:55:10.835Z,-1.30
2018-03-17T10:57:45.587Z,-1.00
2018-03-17T11:00:24.929Z,-0.90
2018-03-17T11:02:58.705Z,-0.70
2018-03-17T11:05:33.301Z,-0.90
2018-03-17T11:08:07.110Z,-0.90
2018-03-17T11:10:40.879Z,-0.80
2018-03-17T11:13:14.704Z,-0.50
2018-03-17T11:15:48.511Z,-0.50
2018-03-17T11:18:22.109Z,-0.80
2018-03-17T11:20:56.940Z,-0.80
2018-03-17T11:23:30.707Z,-1.00
2018-03-17T11:26:05.220Z,-0.90
2018-03-17T11:28:39.656Z,-0.90
2018-03-17T11:31:13.390Z,-0.60
2018-03-17T11:33:47.288Z,-0.80
2018-03-17T11:36:21.106Z,-1.00
2018-03-17T11:38:54.765Z,-0.70
2018-03-17T11:41:28.489Z,-1.00
2018-03-17T11:44:03.144Z,-0.70
2018-03-17T11:46:37.721Z,-0.20
2018-03-17T11:49:11.481Z,-0.10
2018-03-17T11:51:45.345Z,-0.20
2018-03-17T11:54:19.294Z,-0.50
2018-03-17T11:56:53.054Z,-0.30
2018-03-17T11:59:26.943Z,0.00
2018-03-17T12:02:00.662Z,-0.10
2018-03-17T12:04:35.326Z,0.20
2018-03-17T12:07:08.987Z,0.10
2018-03-17T12:09:42.769Z,0.30
2018-03-17T12:12:17.397Z,0.20
2018-03-17T12:14:51.258Z,0.20
2018-03-17T12:17:24.983Z,-0.30
2018-03-17T12:19:59.195Z,-0.40
2018-03-17T12:22:32.888Z,-0.30
2018-03-17T12:25:06.759Z,-0.10
2018-03-17T12:27:40.643Z,0.50
2018-03-17T12:30:14.467Z,0.60
2018-03-17T12:32:48.213Z,0.20
2018-03-17T12:35:21.918Z,0.30
2018-03-17T12:37:55.697Z,0.30
2018-03-17T12:40:29.519Z,0.50
2018-03-17T12:43:03.311Z,0.40
2018-03-17T12:45:37.201Z,0.20
2018-03-17T12:48:11.025Z,0.70
2018-03-17T12:50:45.864Z,0.50
2018-03-17T12:53:19.650Z,0.40
2018-03-17T12:55:53.281Z,0.40
2018-03-17T12:58:27.004Z,0.60
2018-03-17T13:01:00.865Z,0.60
2018-03-17T13:03:34.481Z,0.80
2018-03-17T13:06:08.232Z,1.20
2018-03-17T13:08:41.990Z,1.10
2018-03-17T13:11:15.749Z,1.30
2018-03-17T13:13:49.485Z,1.50
2018-03-17T13:16:23.320Z,1.40
2018-03-17T13:18:57.220Z,1.30
2018-03-17T13:21:31.646Z,0.50
2018-03-17T13:24:05.575Z,0.40
2018-03-17T13:26:39.366Z,1.10
2018-03-17T13:29:13.107Z,1.70
2018-03-17T13:31:46.874Z,1.70
2018-03-17T13:34:20.517Z,1.30
2018-03-17T13:37:06.025Z,1.40
2018-03-17T13:39:39.814Z,1.40
2018-03-17T13:42:13.545Z,1.40
2018-03-17T13:44:48.203Z,2.80
2018-03-17T13:47:21.976Z,2.80
2018-03-17T13:49:55.736Z,3.10
2018-03-17T13:52:29.567Z,3.00
2018-03-17T13:55:03.396Z,3.40
2018-03-17T13:57:37.179Z,3.40
2018-03-17T14:00:10.972Z,3.80
2018-03-17T14:02:44.891Z,3.80
2018-03-17T14:05:19.502Z,3.90
2018-03-17T14:07:53.060Z,3.40
2018-03-17T14:10:26.849Z,2.50
2018-03-17T14:13:00.674Z,1.50
2018-03-17T14:15:34.463Z,1.50
2018-03-17T14:18:08.202Z,2.10
2018-03-17T14:20:41.876Z,2.20
2018-03-17T14:23:15.637Z,2.90
2018-03-17T14:25:49.400Z,3.40
2018-03-17T14:28:23.115Z,3.30
2018-03-17T14:30:56.861Z,2.90
2018-03-17T14:33:30.603Z,1.90
2018-03-17T14:36:04.210Z,1.40
2018-03-17T14:38:37.946Z,1.20
2018-03-17T14:41:11.635Z,1.60
2018-03-17T14:43:45.389Z,1.70
2018-03-17T14:46:19.254Z,1.50
2018-03-17T14:48:53.030Z,1.30
2018-03-17T14:51:26.839Z,0.80
2018-03-17T14:54:00.452Z,0.60
2018-03-17T14:56:34.261Z,0.50
2018-03-17T14:59:08.005Z,0.40
2018-03-17T15:01:41.761Z,0.40
2018-03-17T15:04:15.576Z,0.40
2018-03-17T15:06:49.347Z,0.10
2018-03-17T15:09:23.082Z,0.00
2018-03-17T15:11:57.879Z,0.00
2018-03-17T15:14:31.653Z,0.10
2018-03-17T15:17:06.218Z,-0.10
2018-03-17T15:19:39.983Z,-0.10
2018-03-17T15:22:13.617Z,-0.20
2018-03-17T15:24:47.515Z,-0.30
2018-03-17T15:27:21.189Z,-0.30
2018-03-17T15:29:55.807Z,-0.20
2018-03-17T15:32:29.405Z,-0.10
2018-03-17T15:35:03.022Z,-0.30
2018-03-17T15:37:38.067Z,-0.20
2018-03-17T15:40:11.723Z,-0.10
2018-03-17T15:42:45.340Z,-0.30
2018-03-17T15:45:19.183Z,-0.20
2018-03-17T15:47:52.858Z,-0.30
2018-03-17T15:50:27.587Z,-0.20
2018-03-17T15:53:01.231Z,-0.20
2018-03-17T15:55:35.802Z,-0.30
2018-03-17T15:58:10.055Z,-0.30
2018-03-17T16:00:43.808Z,-0.20
2018-03-17T16:03:17.743Z,-0.30
2018-03-17T16:05:51.525Z,-0.40
2018-03-17T16:08:25.400Z,-0.60
2018-03-17T16:10:58.961Z,-0.70
2018-03-17T16:13:32.735Z,-0.60
2018-03-17T16:16:06.649Z,-0.60
2018-03-17T16:18:40.188Z,-0.60
2018-03-17T16:21:13.817Z,-0.70
2018-03-17T16:23:47.562Z,-0.80
2018-03-17T16:26:22.118Z,-0.80
2018-03-17T16:28:55.771Z,-0.70
2018-03-17T16:31:30.527Z,-0.80
2018-03-17T16:34:08.313Z,-0.70
2018-03-17T16:36:41.948Z,-0.80
2018-03-17T16:39:15.669Z,-0.90
2018-03-17T16:41:49.304Z,-0.80
2018-03-17T16:47:02.346Z,-0.80
2018-03-17T16:49:36.009Z,-0.80
2018-03-17T16:52:10.723Z,-0.90
2018-03-17T16:54:44.326Z,-0.90
2018-03-17T16:57:18.263Z,-1.00
2018-03-17T16:59:51.913Z,-1.00
2018-03-17T17:02:28.957Z,-1.00
2018-03-17T17:05:05.417Z,-1.00
2018-03-17T17:07:39.083Z,-1.10
2018-03-17T17:10:13.601Z,-1.10
2018-03-17T17:12:47.299Z,-1.10
2018-03-17T17:15:21.071Z,-1.20
2018-03-17T17:17:58.225Z,-1.20
2018-03-17T17:20:31.969Z,-1.30
2018-03-17T17:23:05.744Z,-1.40
2018-03-17T17:25:39.448Z,-1.30
2018-03-17T17:28:16.372Z,-1.30
2018-03-17T17:30:50.305Z,-1.30
2018-03-17T17:33:24.579Z,-1.40
2018-03-17T17:36:00.496Z,-1.40
2018-03-17T17:38:35.294Z,-1.40
2018-03-17T17:41:09.142Z,-1.40
2018-03-17T17:43:42.914Z,-1.50
2018-03-17T17:46:16.920Z,-1.50
2018-03-17T17:48:50.811Z,-1.50
2018-03-17T17:51:24.542Z,-1.60
2018-03-17T17:53:58.304Z,-1.50
2018-03-17T17:56:32.178Z,-1.50
2018-03-17T17:59:07.053Z,-1.60
2018-03-17T18:01:45.138Z,-1.60
2018-03-17T18:04:18.872Z,-1.60
2018-03-17T18:06:53.361Z,-1.50
2018-03-17T18:09:27.244Z,-1.50
2018-03-17T18:12:02.847Z,-1.50
2018-03-17T18:14:38.634Z,-1.50
2018-03-17T18:17:14.183Z,-1.60
2018-03-17T18:19:51.416Z,-1.50
2018-03-17T18:22:25.304Z,-1.60
2018-03-17T18:24:59.870Z,-1.60
2018-03-17T18:27:33.698Z,-1.60
2018-03-17T18:30:07.452Z,-1.60
2018-03-17T18:32:42.735Z,-1.50
2018-03-17T18:35:16.566Z,-1.50
2018-03-17T18:37:51.323Z,-1.60
2018-03-17T18:40:26.625Z,-1.60
2018-03-17T18:43:01.890Z,-1.60
2018-03-17T18:45:37.834Z,-1.60
2018-03-17T18:48:11.648Z,-1.60
2018-03-17T18:50:46.022Z,-1.60
2018-03-17T18:53:20.390Z,-1.60
2018-03-17T18:55:54.113Z,-1.60
2018-03-17T18:58:28.093Z,-1.60
2018-03-17T19:01:01.887Z,-1.60
2018-03-17T19:03:36.435Z,-1.60
2018-03-17T19:06:10.931Z,-1.60
2018-03-17T19:08:45.462Z,-1.60
2018-03-17T19:11:19.222Z,-1.60
2018-03-17T19:13:54.714Z,-1.70
2018-03-17T19:16:28.549Z,-1.60
2018-03-17T19:19:02.382Z,-1.60
2018-03-17T19:21:36.292Z,-1.60
2018-03-17T19:24:10.958Z,-1.70
2018-03-17T19:26:44.750Z,-1.70
2018-03-17T19:29:18.472Z,-1.70
2018-03-17T19:31:53.014Z,-1.70
2018-03-17T19:34:27.758Z,-1.70
2018-03-17T19:37:01.994Z,-1.70
2018-03-17T19:39:35.739Z,-1.70
2018-03-17T19:42:09.646Z,-1.70
2018-03-17T19:44:43.384Z,-1.70
2018-03-17T19:47:17.188Z,-1.70
2018-03-17T19:49:50.970Z,-1.70
2018-03-17T19:52:24.737Z,-1.70
2018-03-17T19:54:59.299Z,-1.70
2018-03-17T19:57:33.665Z,-1.70
2018-03-17T20:00:07.423Z,-1.70
2018-03-17T20:02:44.591Z,-1.40
2018-03-17T20:05:20.848Z,-1.40
2018-03-17T20:07:55.362Z,-1.40
2018-03-17T20:10:30.277Z,-1.40
2018-03-17T20:13:04.019Z,-1.40
2018-03-17T20:15:38.567Z,-1.30
2018-03-17T20:18:12.333Z,-1.30
2018-03-17T20:20:47.169Z,-1.40
2018-03-17T20:23:20.958Z,-1.40
2018-03-17T20:28:39.424Z,-1.30
2018-03-17T20:31:13.182Z,-1.30
2018-03-17T20:33:46.992Z,-1.30
2018-03-17T20:36:21.922Z,-1.30
2018-03-17T20:38:55.527Z,-1.40
2018-03-17T20:41:30.323Z,-1.30
2018-03-17T20:44:04.979Z,-1.40
2018-03-17T20:46:39.102Z,-1.40
2018-03-17T20:49:13.653Z,-1.40
2018-03-17T20:51:48.134Z,-1.50
2018-03-17T20:54:21.892Z,-1.50
2018-03-17T20:56:55.742Z,-1.50
2018-03-17T20:59:29.398Z,-1.40
2018-03-17T21:05:16.700Z,-1.50
2018-03-17T21:07:50.424Z,-1.50
2018-03-17T21:10:24.905Z,-1.60
2018-03-17T21:12:59.395Z,-1.80
2018-03-17T21:15:32.934Z,-1.80
2018-03-17T21:18:06.660Z,-1.90
2018-03-17T21:20:40.454Z,-1.90
2018-03-17T21:23:14.251Z,-1.90
2018-03-17T21:25:48.045Z,-1.90
2018-03-17T21:28:22.137Z,-2.00
2018-03-17T21:30:55.859Z,-2.00
2018-03-17T21:33:30.508Z,-2.00
2018-03-17T21:36:04.128Z,-1.90
2018-03-17T21:38:37.795Z,-2.00
2018-03-17T21:41:12.424Z,-2.00
2018-03-17T21:43:46.113Z,-2.00
2018-03-17T21:46:19.862Z,-2.00
2018-03-17T21:48:53.662Z,-2.00
2018-03-17T21:51:27.518Z,-2.00
2018-03-17T21:54:01.984Z,-2.00
2018-03-17T21:56:35.758Z,-2.10
2018-03-17T21:59:10.486Z,-2.00
2018-03-17T22:01:44.265Z,-2.00
2018-03-17T22:04:22.289Z,-2.10
2018-03-17T22:06:56.035Z,-2.10
2018-03-17T22:09:30.565Z,-2.10
2018-03-17T22:12:04.327Z,-2.10
2018-03-17T22:14:38.003Z,-2.10
2018-03-17T22:17:11.838Z,-2.10
2018-03-17T22:19:45.703Z,-2.10
2018-03-17T22:22:20.000Z,-2.20
2018-03-17T22:24:53.869Z,-2.20
2018-03-17T22:27:28.152Z,-2.20
2018-03-17T22:30:01.956Z,-2.10
2018-03-17T22:32:35.698Z,-2.20
2018-03-17T22:35:09.386Z,-2.20
2018-03-17T22:37:43.135Z,-2.20
2018-03-17T22:40:16.972Z,-2.30
2018-03-17T22:42:50.691Z,-2.30
2018-03-17T22:45:24.457Z,-2.30
2018-03-17T22:47:58.219Z,-2.30
2018-03-17T22:50:31.862Z,-2.40
2018-03-17T22:53:05.597Z,-2.40
2018-03-17T22:55:41.940Z,-2.40
2018-03-17T22:58:15.682Z,-2.40
2018-03-17T23:00:49.396Z,-2.40
2018-03-17T23:03:23.132Z,-2.40
2018-03-17T23:05:56.942Z,-2.40
2018-03-17T23:08:30.743Z,-2.30
2018-03-17T23:11:04.469Z,-2.30
2018-03-17T23:13:39.098Z,-2.40
2018-03-17T23:16:13.311Z,-2.40
2018-03-17T23:18:47.021Z,-2.40
2018-03-17T23:21:20.825Z,-2.40
2018-03-17T23:23:54.521Z,-2.40
2018-03-17T23:26:28.246Z,-2.40
2018-03-17T23:29:01.894Z,-2.40
2018-03-17T23:31:35.673Z,-2.40
2018-03-17T23:34:10.128Z,-2.50
2018-03-17T23:36:43.868Z,-2.50
2018-03-17T23:39:17.674Z,-2.40
2018-03-17T23:41:51.464Z,-2.50
2018-03-17T23:44:25.307Z,-2.50
2018-03-17T23:46:59.203Z,-2.50
2018-03-17T23:49:33.674Z,-2.50
2018-03-17T23:52:07.341Z,-2.50
2018-03-17T23:54:41.244Z,-2.50
2018-03-17T23:57:15.204Z,-2.50
2018-03-17T23:59:49.756Z,-2.50
